createdAt,value
2023-07-22T00:01:00.899Z,61.03
2023-07-22T00:03:27.718Z,60.66
2023-07-22T00:06:06.571Z,60.80
2023-07-22T00:08:34.152Z,60.24
2023-07-22T00:11:01.333Z,60.16
2023-07-22T00:13:28.193Z,59.77
2023-07-22T00:15:55.223Z,58.44
2023-07-22T00:18:21.999Z,57.39
2023-07-22T00:20:48.717Z,57.85
2023-07-22T00:23:17.020Z,57.60
2023-07-22T00:25:44.189Z,57.71
2023-07-22T00:28:10.893Z,57.59
2023-07-22T00:30:38.064Z,57.37
2023-07-22T00:33:04.938Z,57.22
2023-07-22T00:35:33.199Z,57.43
2023-07-22T00:38:01.713Z,57.83
2023-07-22T00:40:29.099Z,58.03
2023-07-22T00:42:55.863Z,58.46
2023-07-22T00:45:22.600Z,58.35
2023-07-22T00:47:49.884Z,57.20
2023-07-22T00:50:16.792Z,58.53
2023-07-22T00:52:43.525Z,59.13
2023-07-22T00:55:10.279Z,58.35
2023-07-22T00:57:37.626Z,58.95
2023-07-22T01:00:06.270Z,59.42
2023-07-22T01:02:33.424Z,59.88
2023-07-22T01:05:00.854Z,59.73
2023-07-22T01:07:27.597Z,59.17
2023-07-22T01:09:57.266Z,59.85
2023-07-22T01:12:23.982Z,60.11
2023-07-22T01:14:50.999Z,60.93
2023-07-22T01:17:17.737Z,61.06
2023-07-22T01:19:44.463Z,61.68
2023-07-22T01:22:11.634Z,62.37
2023-07-22T01:24:39.323Z,62.86
2023-07-22T01:27:07.427Z,62.89
2023-07-22T01:29:34.165Z,62.34
2023-07-22T01:32:00.885Z,62.16
2023-07-22T01:34:28.060Z,62.84
2023-07-22T01:36:54.788Z,62.86
2023-07-22T01:39:21.530Z,62.85
2023-07-22T01:41:48.284Z,63.04
2023-07-22T01:44:15.500Z,61.80
2023-07-22T01:46:42.382Z,61.97
2023-07-22T01:49:11.933Z,61.34
2023-07-22T01:51:39.221Z,60.94
2023-07-22T01:54:06.272Z,63.17
2023-07-22T01:56:32.999Z,63.27
2023-07-22T01:58:59.811Z,63.87
2023-07-22T02:01:26.930Z,64.15
2023-07-22T02:03:54.263Z,64.03
2023-07-22T02:06:21.541Z,64.60
2023-07-22T02:08:48.273Z,65.00
2023-07-22T02:11:15.404Z,64.81
2023-07-22T02:13:42.556Z,65.22
2023-07-22T02:16:09.785Z,65.54
2023-07-22T02:18:36.580Z,64.78
2023-07-22T02:21:03.449Z,64.71
2023-07-22T02:23:30.167Z,65.25
2023-07-22T02:25:56.999Z,64.39
2023-07-22T02:28:23.781Z,64.97
2023-07-22T02:30:51.303Z,65.39
2023-07-22T02:33:18.067Z,64.91
2023-07-22T02:35:44.948Z,65.57
2023-07-22T02:38:12.913Z,65.39
2023-07-22T02:40:39.642Z,65.51
2023-07-22T02:43:06.440Z,65.06
2023-07-22T02:45:33.546Z,66.48
2023-07-22T02:48:00.307Z,66.17
2023-07-22T02:50:28.487Z,66.62
2023-07-22T02:52:55.228Z,66.44
2023-07-22T02:55:22.638Z,66.93
2023-07-22T02:57:49.657Z,67.04
2023-07-22T03:00:17.595Z,66.60
2023-07-22T03:02:44.347Z,66.11
2023-07-22T03:05:11.267Z,66.50
2023-07-22T03:07:38.623Z,66.85
2023-07-22T03:10:09.102Z,66.33
2023-07-22T03:12:37.023Z,66.26
2023-07-22T03:15:04.026Z,66.43
2023-07-22T03:17:31.084Z,65.85
2023-07-22T03:19:57.831Z,65.89
2023-07-22T03:22:24.648Z,66.56
2023-07-22T03:24:51.788Z,65.94
2023-07-22T03:27:18.585Z,65.93
2023-07-22T03:29:45.465Z,65.39
2023-07-22T03:32:13.564Z,65.57
2023-07-22T03:34:40.357Z,65.65
2023-07-22T03:37:08.265Z,64.51
2023-07-22T03:39:35.050Z,64.84
2023-07-22T03:42:01.787Z,65.02
2023-07-22T03:44:30.371Z,65.80
2023-07-22T03:46:58.341Z,65.51
2023-07-22T03:49:25.601Z,65.29
2023-07-22T03:51:52.310Z,65.19
2023-07-22T03:54:19.039Z,64.42
2023-07-22T03:56:45.943Z,61.66
2023-07-22T03:59:13.140Z,63.15
2023-07-22T04:01:40.081Z,62.94
2023-07-22T04:04:06.926Z,62.56
2023-07-22T04:06:33.801Z,62.26
2023-07-22T04:09:00.755Z,62.32
2023-07-22T04:11:27.880Z,64.30
2023-07-22T04:14:14.726Z,66.22
2023-07-22T04:17:40.430Z,65.15
2023-07-22T04:20:07.674Z,64.36
2023-07-22T04:22:35.134Z,65.07
2023-07-22T04:25:02.183Z,65.78
2023-07-22T04:27:29.275Z,66.55
2023-07-22T04:29:55.986Z,66.26
2023-07-22T04:32:23.083Z,65.45
2023-07-22T04:34:49.899Z,66.36
2023-07-22T04:37:16.707Z,66.42
2023-07-22T04:39:43.482Z,66.01
2023-07-22T04:42:10.534Z,66.33
2023-07-22T04:44:37.449Z,66.77
2023-07-22T04:47:04.463Z,66.64
2023-07-22T04:49:31.355Z,64.55
2023-07-22T04:51:58.171Z,65.75
2023-07-22T04:54:26.318Z,64.25
2023-07-22T04:56:53.038Z,63.16
2023-07-22T04:59:19.855Z,62.62
2023-07-22T05:01:46.997Z,61.37
2023-07-22T05:04:13.786Z,61.14
2023-07-22T05:06:40.952Z,60.31
2023-07-22T05:09:08.046Z,59.86
2023-07-22T05:11:34.789Z,60.98
2023-07-22T05:14:01.583Z,61.38
2023-07-22T05:16:28.600Z,61.15
2023-07-22T05:18:55.532Z,60.24
2023-07-22T05:21:22.633Z,60.72
2023-07-22T05:23:49.816Z,60.22
2023-07-22T05:26:16.520Z,59.82
2023-07-22T05:28:43.478Z,59.53
2023-07-22T05:31:10.409Z,60.08
2023-07-22T05:33:43.331Z,60.70
2023-07-22T05:36:10.568Z,60.48
2023-07-22T05:38:37.320Z,59.20
2023-07-22T05:41:04.529Z,61.81
2023-07-22T05:43:31.376Z,60.59
2023-07-22T05:45:58.290Z,60.88
2023-07-22T05:48:25.229Z,58.76
2023-07-22T05:50:52.884Z,59.21
2023-07-22T05:53:19.681Z,61.00
2023-07-22T05:55:46.810Z,60.55
2023-07-22T05:58:17.651Z,59.26
2023-07-22T06:00:44.389Z,58.03
2023-07-22T06:03:11.260Z,60.08
2023-07-22T06:05:38.044Z,59.80
2023-07-22T06:08:05.126Z,59.35
2023-07-22T06:10:32.319Z,57.58
2023-07-22T06:12:59.114Z,57.35
2023-07-22T06:15:25.880Z,58.44
2023-07-22T06:17:52.699Z,57.06
2023-07-22T06:20:19.937Z,54.75
2023-07-22T06:22:46.675Z,54.47
2023-07-22T06:25:13.500Z,51.91
2023-07-22T06:27:40.724Z,51.67
2023-07-22T06:30:07.961Z,51.04
2023-07-22T06:32:35.453Z,52.50
2023-07-22T06:35:02.534Z,52.26
2023-07-22T06:37:31.334Z,48.67
2023-07-22T06:39:58.081Z,47.83
2023-07-22T06:42:25.251Z,50.16
2023-07-22T06:44:52.064Z,50.09
2023-07-22T06:47:18.832Z,48.45
2023-07-22T06:49:47.494Z,48.21
2023-07-22T06:52:16.626Z,47.92
2023-07-22T06:54:43.383Z,51.04
2023-07-22T06:57:10.208Z,47.88
2023-07-22T06:59:37.542Z,47.37
2023-07-22T07:02:05.167Z,48.11
2023-07-22T07:04:31.903Z,46.84
2023-07-22T07:06:59.041Z,46.67
2023-07-22T07:09:25.814Z,46.32
2023-07-22T07:11:52.680Z,45.48
2023-07-22T07:14:19.449Z,46.50
2023-07-22T07:19:12.809Z,48.46
2023-07-22T07:21:39.637Z,49.20
2023-07-22T07:24:06.620Z,49.01
2023-07-22T07:26:33.819Z,47.89
2023-07-22T07:29:00.666Z,46.72
2023-07-22T07:31:27.445Z,46.77
2023-07-22T07:33:54.221Z,46.55
2023-07-22T07:36:21.013Z,47.33
2023-07-22T07:38:47.807Z,46.82
2023-07-22T07:41:14.670Z,45.11
2023-07-22T07:43:42.028Z,44.97
2023-07-22T07:46:24.810Z,45.04
2023-07-22T07:48:53.469Z,46.00
2023-07-22T07:51:21.163Z,46.83
2023-07-22T07:53:47.991Z,44.78
2023-07-22T07:56:14.938Z,45.17
2023-07-22T07:58:41.841Z,44.75
2023-07-22T08:01:08.572Z,45.16
2023-07-22T08:03:36.006Z,44.90
2023-07-22T08:06:03.547Z,46.74
2023-07-22T08:08:30.438Z,44.94
2023-07-22T08:11:04.129Z,44.97
2023-07-22T08:13:30.846Z,43.01
2023-07-22T08:15:58.440Z,43.22
2023-07-22T08:18:25.421Z,43.33
2023-07-22T08:20:53.531Z,41.32
2023-07-22T08:23:20.991Z,41.85
2023-07-22T08:25:47.982Z,41.16
2023-07-22T08:28:15.024Z,40.14
2023-07-22T08:30:41.870Z,39.64
2023-07-22T08:33:13.026Z,40.91
2023-07-22T08:35:40.858Z,39.75
2023-07-22T08:38:08.502Z,39.63
2023-07-22T08:40:38.964Z,39.42
2023-07-22T08:43:06.827Z,39.23
2023-07-22T08:45:34.366Z,37.22
2023-07-22T08:48:01.248Z,37.96
2023-07-22T08:50:31.447Z,38.57
2023-07-22T08:52:58.183Z,37.94
2023-07-22T08:55:25.533Z,34.33
2023-07-22T08:57:52.342Z,37.17
2023-07-22T09:00:19.690Z,35.32
2023-07-22T09:02:46.450Z,36.77
2023-07-22T09:05:13.473Z,35.43
2023-07-22T09:07:40.295Z,35.13
2023-07-22T09:10:09.422Z,34.53
2023-07-22T09:12:36.289Z,35.63
2023-07-22T09:15:03.036Z,34.93
2023-07-22T09:17:30.289Z,33.23
2023-07-22T09:19:57.154Z,33.76
2023-07-22T09:22:35.203Z,33.77
2023-07-22T09:25:15.220Z,33.20
2023-07-22T09:27:42.738Z,33.41
2023-07-22T09:30:28.862Z,33.30
2023-07-22T09:33:05.190Z,32.93
2023-07-22T09:35:46.031Z,33.30
2023-07-22T09:38:13.197Z,32.64
2023-07-22T09:40:43.247Z,31.12
2023-07-22T09:43:23.356Z,33.83
2023-07-22T09:45:50.341Z,32.92
2023-07-22T09:48:17.312Z,31.37
2023-07-22T09:50:44.585Z,33.43
2023-07-22T09:53:12.065Z,33.70
2023-07-22T09:55:38.773Z,32.40
2023-07-22T09:58:05.814Z,33.24
2023-07-22T10:00:55.251Z,34.12
2023-07-22T10:03:22.428Z,33.63
2023-07-22T10:05:49.370Z,33.83
2023-07-22T10:08:16.565Z,33.26
2023-07-22T10:10:43.874Z,32.49
2023-07-22T10:13:10.676Z,31.68
2023-07-22T10:15:45.761Z,31.94
2023-07-22T10:18:12.880Z,32.00
2023-07-22T10:20:40.334Z,31.10
2023-07-22T10:23:07.830Z,31.82
2023-07-22T10:25:34.769Z,31.20
2023-07-22T10:28:01.764Z,30.90
2023-07-22T10:30:28.540Z,30.21
2023-07-22T10:32:55.386Z,30.15
2023-07-22T10:35:32.144Z,30.38
2023-07-22T10:38:14.967Z,30.42
2023-07-22T10:40:49.079Z,29.92
2023-07-22T10:43:19.785Z,31.84
2023-07-22T10:45:54.620Z,31.53
2023-07-22T10:48:21.451Z,30.80
2023-07-22T10:50:49.594Z,32.32
2023-07-22T10:53:25.325Z,31.92
2023-07-22T10:56:21.755Z,30.59
2023-07-22T10:58:49.322Z,31.27
2023-07-22T11:01:32.280Z,28.68
2023-07-22T11:04:22.001Z,28.38
2023-07-22T11:06:54.938Z,28.84
2023-07-22T11:09:28.178Z,29.69
2023-07-22T11:11:56.245Z,29.67
2023-07-22T11:14:23.094Z,26.94
2023-07-22T11:16:49.868Z,28.41
2023-07-22T11:19:17.653Z,27.56
2023-07-22T11:21:45.064Z,28.09
2023-07-22T11:24:11.844Z,27.47
2023-07-22T11:26:40.244Z,27.64
2023-07-22T11:29:08.368Z,26.50
2023-07-22T11:31:41.563Z,28.30
2023-07-22T11:34:08.316Z,27.63
2023-07-22T11:36:35.113Z,28.33
2023-07-22T11:39:06.188Z,29.70
2023-07-22T11:41:33.669Z,28.83
2023-07-22T11:44:04.018Z,28.03
2023-07-22T11:46:30.819Z,28.30
2023-07-22T11:48:57.899Z,28.15
2023-07-22T11:51:26.317Z,28.53
2023-07-22T11:53:54.661Z,28.82
2023-07-22T11:56:29.242Z,30.40
2023-07-22T11:58:56.979Z,29.93
2023-07-22T12:01:24.087Z,29.65
2023-07-22T12:03:56.269Z,28.86
2023-07-22T12:06:23.169Z,29.01
2023-07-22T12:08:52.313Z,29.58
2023-07-22T12:11:23.675Z,29.40
2023-07-22T12:14:07.368Z,28.71
2023-07-22T12:16:35.168Z,29.08
2023-07-22T12:19:02.194Z,29.07
2023-07-22T12:21:29.192Z,27.44
2023-07-22T12:23:56.430Z,28.81
2023-07-22T12:26:23.607Z,27.43
2023-07-22T12:28:51.081Z,27.17
2023-07-22T12:31:18.225Z,26.89
2023-07-22T12:33:44.956Z,27.73
2023-07-22T12:36:14.454Z,27.62
2023-07-22T12:38:42.478Z,26.17
2023-07-22T12:41:09.200Z,27.92
2023-07-22T12:43:36.200Z,25.19
2023-07-22T12:46:02.950Z,25.44
2023-07-22T12:48:29.736Z,25.27
2023-07-22T12:50:56.542Z,24.49
2023-07-22T12:53:23.439Z,24.37
2023-07-22T12:55:50.282Z,25.15
2023-07-22T12:58:18.419Z,25.93
2023-07-22T13:00:45.173Z,25.95
2023-07-22T13:03:14.809Z,26.39
2023-07-22T13:05:41.620Z,25.95
2023-07-22T13:08:08.462Z,25.14
2023-07-22T13:10:37.638Z,25.24
2023-07-22T13:13:04.431Z,26.57
2023-07-22T13:15:31.226Z,26.25
2023-07-22T13:17:58.356Z,26.18
2023-07-22T13:20:25.534Z,26.74
2023-07-22T13:22:52.541Z,27.47
2023-07-22T13:25:19.413Z,26.22
2023-07-22T13:27:46.147Z,27.25
2023-07-22T13:30:14.286Z,25.70
2023-07-22T13:32:41.121Z,25.84
2023-07-22T13:35:10.775Z,26.62
2023-07-22T13:37:37.546Z,25.50
2023-07-22T13:40:07.970Z,26.27
2023-07-22T13:46:21.989Z,26.49
2023-07-22T13:48:50.424Z,27.34
2023-07-22T13:51:17.137Z,27.38
2023-07-22T13:53:45.400Z,26.32
2023-07-22T13:56:12.161Z,24.71
2023-07-22T13:58:39.301Z,24.72
2023-07-22T14:01:06.305Z,24.26
2023-07-22T14:03:33.136Z,24.42
2023-07-22T14:06:00.002Z,25.13
2023-07-22T14:08:26.754Z,25.60
2023-07-22T14:10:53.851Z,24.93
2023-07-22T14:13:22.774Z,25.47
2023-07-22T14:15:49.567Z,25.40
2023-07-22T14:18:17.155Z,25.87
2023-07-22T14:20:46.859Z,26.30
2023-07-22T14:23:13.664Z,26.02
2023-07-22T14:25:40.746Z,26.33
2023-07-22T14:28:07.794Z,26.38
2023-07-22T14:30:35.011Z,25.84
2023-07-22T14:33:02.109Z,25.86
2023-07-22T14:35:29.300Z,25.11
2023-07-22T14:37:57.276Z,24.67
2023-07-22T14:40:26.566Z,25.94
2023-07-22T14:42:53.648Z,25.46
2023-07-22T14:45:21.508Z,24.36
2023-07-22T14:47:48.712Z,24.00
2023-07-22T14:50:15.521Z,24.93
2023-07-22T14:52:42.552Z,25.44
2023-07-22T14:55:10.309Z,25.49
2023-07-22T14:57:37.233Z,25.05
2023-07-22T15:00:04.572Z,24.22
2023-07-22T15:02:31.354Z,25.57
2023-07-22T15:04:58.102Z,24.90
2023-07-22T15:08:03.994Z,25.73
2023-07-22T15:10:31.074Z,24.80
2023-07-22T15:12:58.476Z,25.15
2023-07-22T15:15:26.566Z,25.88
2023-07-22T15:17:53.305Z,25.14
2023-07-22T15:20:20.375Z,24.44
2023-07-22T15:22:47.347Z,24.20
2023-07-22T15:25:14.675Z,24.64
2023-07-22T15:27:43.262Z,24.75
2023-07-22T15:30:10.504Z,24.16
2023-07-22T15:32:37.491Z,23.51
2023-07-22T15:35:05.965Z,23.86
2023-07-22T15:41:19.642Z,23.58
2023-07-22T15:43:46.469Z,24.02
2023-07-22T15:46:13.231Z,23.50
2023-07-22T15:48:40.007Z,24.67
2023-07-22T15:51:06.718Z,23.67
2023-07-22T15:53:34.808Z,24.04
2023-07-22T15:56:15.477Z,24.25
2023-07-22T15:58:42.603Z,24.28
2023-07-22T16:01:09.706Z,25.39
2023-07-22T16:03:36.524Z,24.85
2023-07-22T16:06:03.796Z,26.62
2023-07-22T16:08:31.803Z,25.39
2023-07-22T16:10:58.535Z,24.81
2023-07-22T16:13:26.434Z,25.03
2023-07-22T16:15:56.044Z,24.98
2023-07-22T16:18:23.226Z,24.15
2023-07-22T16:20:50.002Z,24.65
2023-07-22T16:23:16.846Z,23.83
2023-07-22T16:25:43.930Z,24.76
2023-07-22T16:28:10.643Z,24.29
2023-07-22T16:30:41.064Z,24.42
2023-07-22T16:33:07.899Z,24.42
2023-07-22T16:35:35.707Z,24.70
2023-07-22T16:38:03.988Z,23.81
2023-07-22T16:40:30.749Z,24.18
2023-07-22T16:42:57.476Z,24.21
2023-07-22T16:45:24.205Z,24.83
2023-07-22T16:47:50.946Z,24.37
2023-07-22T16:50:18.351Z,24.06
2023-07-22T16:52:46.385Z,22.85
2023-07-22T16:55:18.142Z,22.07
2023-07-22T16:57:45.685Z,21.47
2023-07-22T17:00:15.545Z,22.77
2023-07-22T17:02:48.490Z,21.91
2023-07-22T17:05:15.306Z,22.37
2023-07-22T17:07:43.455Z,23.18
2023-07-22T17:10:10.384Z,23.93
2023-07-22T17:12:37.109Z,23.09
2023-07-22T17:15:08.126Z,24.51
2023-07-22T17:17:35.064Z,23.51
2023-07-22T17:20:01.894Z,22.48
2023-07-22T17:22:30.241Z,22.85
2023-07-22T17:24:56.997Z,20.66
2023-07-22T17:27:24.673Z,21.12
2023-07-22T17:29:51.793Z,20.61
2023-07-22T17:32:19.206Z,22.20
2023-07-22T17:34:48.876Z,22.65
2023-07-22T17:37:16.093Z,23.11
2023-07-22T17:39:42.853Z,22.12
2023-07-22T17:42:09.592Z,23.67
2023-07-22T17:44:37.362Z,23.35
2023-07-22T17:47:05.108Z,23.59
2023-07-22T17:49:32.532Z,24.37
2023-07-22T17:51:59.411Z,23.31
2023-07-22T17:54:29.053Z,23.70
2023-07-22T17:56:56.251Z,22.19
2023-07-22T17:59:23.117Z,21.51
2023-07-22T18:01:50.440Z,22.04
2023-07-22T18:04:17.503Z,22.25
2023-07-22T18:06:55.687Z,21.92
2023-07-22T18:09:22.420Z,22.25
2023-07-22T18:11:49.146Z,23.00
2023-07-22T18:14:15.890Z,23.48
2023-07-22T18:16:43.097Z,24.99
2023-07-22T18:19:10.225Z,25.53
2023-07-22T18:21:37.987Z,24.10
2023-07-22T18:24:04.924Z,24.06
2023-07-22T18:26:32.683Z,24.27
2023-07-22T18:28:59.409Z,23.93
2023-07-22T18:31:27.679Z,25.02
2023-07-22T18:33:56.094Z,25.45
2023-07-22T18:36:22.894Z,24.77
2023-07-22T18:38:50.002Z,27.39
2023-07-22T18:41:17.040Z,25.79
2023-07-22T18:43:44.290Z,27.69
2023-07-22T18:46:17.669Z,26.95
2023-07-22T18:48:47.493Z,29.51
2023-07-22T18:51:15.473Z,29.97
2023-07-22T18:53:42.577Z,30.02
2023-07-22T18:56:10.817Z,30.13
2023-07-22T18:58:38.935Z,31.70
2023-07-22T19:01:08.706Z,32.03
2023-07-22T19:03:36.642Z,32.97
2023-07-22T19:06:04.232Z,32.61
2023-07-22T19:08:30.973Z,33.79
2023-07-22T19:10:57.709Z,34.80
2023-07-22T19:13:25.036Z,34.70
2023-07-22T19:15:52.501Z,34.85
2023-07-22T19:18:19.349Z,34.04
2023-07-22T19:20:46.226Z,35.29
2023-07-22T19:23:12.971Z,36.38
2023-07-22T19:25:40.215Z,36.88
2023-07-22T19:28:10.016Z,35.45
2023-07-22T19:30:40.175Z,35.22
2023-07-22T19:33:08.287Z,36.58
2023-07-22T19:35:35.089Z,37.27
2023-07-22T19:38:02.306Z,37.69
2023-07-22T19:40:29.874Z,38.52
2023-07-22T19:42:56.602Z,39.05
2023-07-22T19:45:26.000Z,39.08
2023-07-22T19:47:54.120Z,40.64
2023-07-22T19:50:21.671Z,40.87
2023-07-22T19:52:49.805Z,39.99
2023-07-22T19:55:16.642Z,40.31
2023-07-22T19:57:43.388Z,41.56
2023-07-22T20:00:11.091Z,42.16
2023-07-22T20:02:38.398Z,42.18
2023-07-22T20:05:05.867Z,42.12
2023-07-22T20:07:32.652Z,42.56
2023-07-22T20:09:59.442Z,43.33
2023-07-22T20:12:26.471Z,44.38
2023-07-22T20:14:53.301Z,45.09
2023-07-22T20:17:20.392Z,44.59
2023-07-22T20:19:49.905Z,44.89
2023-07-22T20:22:17.153Z,45.46
2023-07-22T20:24:44.171Z,45.52
2023-07-22T20:27:11.423Z,45.56
2023-07-22T20:29:40.819Z,45.71
2023-07-22T20:32:23.033Z,45.71
2023-07-22T20:34:57.955Z,46.77
2023-07-22T20:37:24.781Z,47.42
2023-07-22T20:39:52.490Z,47.32
2023-07-22T20:42:22.185Z,47.91
2023-07-22T20:44:48.930Z,48.16
2023-07-22T20:47:15.685Z,48.31
2023-07-22T20:49:42.760Z,47.43
2023-07-22T20:52:09.554Z,48.06
2023-07-22T20:54:36.690Z,49.38
2023-07-22T20:57:04.058Z,50.52
2023-07-22T20:59:30.793Z,50.05
2023-07-22T21:01:57.522Z,50.80
2023-07-22T21:04:24.633Z,50.32
2023-07-22T21:06:59.325Z,50.06
2023-07-22T21:09:26.128Z,50.25
2023-07-22T21:11:52.974Z,50.34
2023-07-22T21:14:19.815Z,50.99
2023-07-22T21:16:46.545Z,50.73
2023-07-22T21:19:13.271Z,50.99
2023-07-22T21:21:41.001Z,51.06
2023-07-22T21:24:07.814Z,51.60
2023-07-22T21:26:36.160Z,52.20
2023-07-22T21:29:03.262Z,52.32
2023-07-22T21:31:30.351Z,52.29
2023-07-22T21:34:12.406Z,53.57
2023-07-22T21:37:03.260Z,53.01
2023-07-22T21:39:30.478Z,53.02
2023-07-22T21:41:57.729Z,53.40
2023-07-22T21:44:24.571Z,53.68
2023-07-22T21:46:51.722Z,55.23
2023-07-22T21:49:18.884Z,55.85
2023-07-22T21:51:45.856Z,55.28
2023-07-22T21:54:12.652Z,55.59
2023-07-22T21:56:39.371Z,55.15
2023-07-22T21:59:06.181Z,55.68
2023-07-22T22:01:35.475Z,55.53
2023-07-22T22:04:02.514Z,55.77
2023-07-22T22:06:36.322Z,56.08
2023-07-22T22:09:03.500Z,56.66
2023-07-22T22:11:30.874Z,57.27
2023-07-22T22:13:57.896Z,57.83
2023-07-22T22:16:24.989Z,57.50
2023-07-22T22:18:51.732Z,57.24
2023-07-22T22:21:18.938Z,58.32
2023-07-22T22:23:45.706Z,58.61
2023-07-22T22:26:12.450Z,59.13
2023-07-22T22:28:39.988Z,58.73
2023-07-22T22:31:07.214Z,59.23
2023-07-22T22:33:36.888Z,58.55
2023-07-22T22:36:04.113Z,58.33
2023-07-22T22:38:30.964Z,58.89
2023-07-22T22:40:57.747Z,58.46
2023-07-22T22:43:24.644Z,58.68
2023-07-22T22:45:51.442Z,58.40
2023-07-22T22:48:18.374Z,58.41
2023-07-22T22:50:45.157Z,59.05
2023-07-22T22:53:11.952Z,59.03
2023-07-22T22:55:38.851Z,58.77
2023-07-22T22:58:05.667Z,58.40
2023-07-22T23:00:32.534Z,57.71
2023-07-22T23:02:59.484Z,57.91
2023-07-22T23:05:28.414Z,59.19
2023-07-22T23:07:55.268Z,58.41
2023-07-22T23:10:22.033Z,58.23
2023-07-22T23:12:49.245Z,57.44
2023-07-22T23:15:16.947Z,57.83
2023-07-22T23:17:44.289Z,57.26
2023-07-22T23:20:12.855Z,56.84
2023-07-22T23:22:52.861Z,55.95
2023-07-22T23:25:19.945Z,56.81
2023-07-22T23:27:46.866Z,56.93
2023-07-22T23:30:13.698Z,56.50
2023-07-22T23:32:41.127Z,57.65
2023-07-22T23:35:08.286Z,58.46
2023-07-22T23:37:35.757Z,57.86
2023-07-22T23:40:03.130Z,58.37
2023-07-22T23:42:30.067Z,57.83
2023-07-22T23:44:58.174Z,58.09
2023-07-22T23:47:25.370Z,58.01
2023-07-22T23:49:52.110Z,58.92
2023-07-22T23:52:18.834Z,58.13
2023-07-22T23:54:45.937Z,57.90
2023-07-22T23:57:12.769Z,58.51
2023-07-22T23:59:39.881Z,58.03
